createdAt,value
2023-02-19T00:00:54.462Z,100618.85
2023-02-19T00:01:58.778Z,100621.2
2023-02-19T00:03:03.062Z,100620.34
2023-02-19T00:04:07.301Z,100617.84
2023-02-19T00:05:11.789Z,100611.22
2023-02-19T00:06:16.180Z,100613.83
2023-02-19T00:07:20.484Z,100615.31
2023-02-19T00:08:24.783Z,100613.56
2023-02-19T00:09:29.042Z,100609.72
2023-02-19T00:10:33.308Z,100610.55
2023-02-19T00:11:37.779Z,100613.49
2023-02-19T00:12:42.046Z,100612.41
2023-02-19T00:13:46.328Z,100612.23
2023-02-19T00:14:50.574Z,100612.97
2023-02-19T00:15:54.952Z,100615.09
2023-02-19T00:16:59.290Z,100614.73
2023-02-19T00:18:03.570Z,100613.91
2023-02-19T00:19:07.863Z,100610.73
2023-02-19T00:20:12.122Z,100608.8
2023-02-19T00:21:16.378Z,100607.04
2023-02-19T00:22:20.646Z,100608.05
2023-02-19T00:23:24.918Z,100612.81
2023-02-19T00:24:29.209Z,100608.42
2023-02-19T00:25:33.448Z,100606.48
2023-02-19T00:26:37.723Z,100602.2
2023-02-19T00:27:42.002Z,100608.56
2023-02-19T00:28:46.290Z,100609.9
2023-02-19T00:29:50.589Z,100609.41
2023-02-19T00:30:54.887Z,100606.8
2023-02-19T00:31:59.731Z,100610
2023-02-19T00:33:04.184Z,100608.23
2023-02-19T00:34:08.433Z,100612.59
2023-02-19T00:35:12.681Z,100611.14
2023-02-19T00:36:16.946Z,100611.41
2023-02-19T00:37:21.193Z,100613.67
2023-02-19T00:38:25.446Z,100606.03
2023-02-19T00:39:29.722Z,100620.95
2023-02-19T00:40:34.006Z,100609.63
2023-02-19T00:41:38.314Z,100612.66
2023-02-19T00:42:42.637Z,100613.67
2023-02-19T00:43:47.019Z,100611.66
2023-02-19T00:44:51.352Z,100614.5
2023-02-19T00:45:55.609Z,100619.97
2023-02-19T00:46:59.974Z,100615.95
2023-02-19T00:48:04.230Z,100629.36
2023-02-19T00:49:08.476Z,100620.45
2023-02-19T00:50:12.744Z,100620.98
2023-02-19T00:51:17.018Z,100625.81
2023-02-19T00:52:21.364Z,100624.38
2023-02-19T00:53:25.610Z,100616.09
2023-02-19T00:54:29.886Z,100614.48
2023-02-19T00:55:34.144Z,100613.48
2023-02-19T00:56:38.378Z,100615.48
2023-02-19T00:57:42.636Z,100610.98
2023-02-19T00:58:46.876Z,100616.59
2023-02-19T00:59:51.143Z,100612.8
2023-02-19T01:00:55.394Z,100615.59
2023-02-19T01:01:59.750Z,100612.98
2023-02-19T01:03:04.043Z,100609.63
2023-02-19T01:04:08.307Z,100611.23
2023-02-19T01:05:12.617Z,100610.3
2023-02-19T01:06:16.877Z,100610.89
2023-02-19T01:07:21.143Z,100610.55
2023-02-19T01:08:25.459Z,100603.17
2023-02-19T01:09:29.710Z,100601.91
2023-02-19T01:10:34.034Z,100593.52
2023-02-19T01:11:38.294Z,100596.27
2023-02-19T01:12:42.558Z,100593.59
2023-02-19T01:13:46.835Z,100594.61
2023-02-19T01:14:51.192Z,100595.05
2023-02-19T01:15:55.583Z,100595.05
2023-02-19T01:16:59.924Z,100588.69
2023-02-19T01:18:04.171Z,100588.56
2023-02-19T01:19:08.446Z,100590.91
2023-02-19T01:20:12.708Z,100586.57
2023-02-19T01:21:16.948Z,100588.35
2023-02-19T01:22:21.208Z,100588.77
2023-02-19T01:23:25.484Z,100584.48
2023-02-19T01:24:29.765Z,100583.73
2023-02-19T01:25:34.045Z,100584.55
2023-02-19T01:26:38.290Z,100584.39
2023-02-19T01:27:42.535Z,100589.58
2023-02-19T01:28:46.844Z,100590.39
2023-02-19T01:29:51.117Z,100579.92
2023-02-19T01:30:55.464Z,100586.9
2023-02-19T01:31:59.993Z,100585.13
2023-02-19T01:33:04.580Z,100588
2023-02-19T01:34:08.854Z,100587.13
2023-02-19T01:35:13.108Z,100586.64
2023-02-19T01:36:17.354Z,100586.8
2023-02-19T01:37:21.657Z,100580.69
2023-02-19T01:38:25.914Z,100579.53
2023-02-19T01:39:30.175Z,100575.83
2023-02-19T01:40:34.444Z,100582.02
2023-02-19T01:41:38.707Z,100587.05
2023-02-19T01:42:43.000Z,100582.35
2023-02-19T01:43:47.267Z,100587.38
2023-02-19T01:44:51.521Z,100584.95
2023-02-19T01:45:55.765Z,100584.1
2023-02-19T01:47:00.132Z,100579.26
2023-02-19T01:48:04.380Z,100576.24
2023-02-19T01:49:08.666Z,100568.02
2023-02-19T01:50:12.948Z,100568.12
2023-02-19T01:51:17.218Z,100567.92
2023-02-19T01:52:21.468Z,100567.92
2023-02-19T01:53:25.721Z,100565.66
2023-02-19T01:54:29.967Z,100569.53
2023-02-19T01:55:34.278Z,100562.3
2023-02-19T01:56:38.652Z,100558.62
2023-02-19T01:57:43.012Z,100560.63
2023-02-19T01:58:47.305Z,100556.72
2023-02-19T01:59:51.564Z,100556.45
2023-02-19T02:00:55.893Z,100560.56
2023-02-19T02:02:00.468Z,100556.72
2023-02-19T02:03:04.823Z,100550.34
2023-02-19T02:04:09.105Z,100547.74
2023-02-19T02:05:13.351Z,100545.22
2023-02-19T02:06:18.643Z,100552.59
2023-02-19T02:07:22.894Z,100547.23
2023-02-19T02:08:27.163Z,100538.97
2023-02-19T02:09:31.437Z,100545.41
2023-02-19T02:10:35.725Z,100539.45
2023-02-19T02:11:39.960Z,100533.59
2023-02-19T02:12:44.193Z,100538.62
2023-02-19T02:13:48.462Z,100538.44
2023-02-19T02:14:52.709Z,100539.19
2023-02-19T02:15:57.058Z,100536.95
2023-02-19T02:17:01.362Z,100535.94
2023-02-19T02:18:05.617Z,100530.31
2023-02-19T02:19:09.976Z,100533.73
2023-02-19T02:20:14.287Z,100530.23
2023-02-19T02:21:18.650Z,100533.5
2023-02-19T02:22:22.902Z,100530.56
2023-02-19T02:23:27.164Z,100532.49
2023-02-19T02:24:31.418Z,100525.45
2023-02-19T02:25:35.667Z,100527.21
2023-02-19T02:26:39.973Z,100528.03
2023-02-19T02:27:44.233Z,100529.03
2023-02-19T02:28:48.512Z,100524.94
2023-02-19T02:29:52.754Z,100529.21
2023-02-19T02:30:57.247Z,100523.67
2023-02-19T02:32:01.972Z,100523.27
2023-02-19T02:33:06.488Z,100522
2023-02-19T02:34:10.773Z,100515.41
2023-02-19T02:35:15.056Z,100506.52
2023-02-19T02:36:19.321Z,100505.27
2023-02-19T02:37:23.588Z,100501.77
2023-02-19T02:38:27.876Z,100503.35
2023-02-19T02:39:32.145Z,100508.94
2023-02-19T02:40:36.390Z,100509.72
2023-02-19T02:41:40.638Z,100511.96
2023-02-19T02:42:44.901Z,100508.6
2023-02-19T02:43:49.192Z,100511.46
2023-02-19T02:44:53.417Z,100508.93
2023-02-19T02:45:57.767Z,100509.88
2023-02-19T02:47:02.144Z,100509.27
2023-02-19T02:48:06.389Z,100503.16
2023-02-19T02:49:10.683Z,100512.55
2023-02-19T02:50:14.958Z,100507.6
2023-02-19T02:51:19.188Z,100495.39
2023-02-19T02:52:23.610Z,100502.23
2023-02-19T02:53:27.877Z,100503.69
2023-02-19T02:54:32.136Z,100499.41
2023-02-19T02:55:36.461Z,100492.3
2023-02-19T02:56:40.818Z,100488.1
2023-02-19T02:57:45.050Z,100488.35
2023-02-19T02:58:49.326Z,100485.6
2023-02-19T02:59:53.567Z,100485.34
2023-02-19T03:00:57.957Z,100484.67
2023-02-19T03:02:02.400Z,100481.73
2023-02-19T03:03:06.739Z,100482.59
2023-02-19T03:04:11.006Z,100478.13
2023-02-19T03:05:15.302Z,100475.97
2023-02-19T03:06:19.564Z,100479.92
2023-02-19T03:07:23.831Z,100489.7
2023-02-19T03:08:28.089Z,100480.59
2023-02-19T03:09:32.370Z,100483.69
2023-02-19T03:10:36.610Z,100488.11
2023-02-19T03:11:40.856Z,100482.08
2023-02-19T03:12:45.144Z,100480.25
2023-02-19T03:13:49.417Z,100483.49
2023-02-19T03:14:53.720Z,100477.58
2023-02-19T03:15:57.974Z,100478.06
2023-02-19T03:17:03.276Z,100476.91
2023-02-19T03:18:07.525Z,100482
2023-02-19T03:19:11.761Z,100473.37
2023-02-19T03:20:16.096Z,100479.24
2023-02-19T03:21:20.381Z,100483.82
2023-02-19T03:22:24.636Z,100476.03
2023-02-19T03:23:28.895Z,100471.09
2023-02-19T03:24:33.196Z,100466.73
2023-02-19T03:25:37.443Z,100470.08
2023-02-19T03:26:41.722Z,100469.52
2023-02-19T03:27:45.976Z,100458.8
2023-02-19T03:28:50.243Z,100458.54
2023-02-19T03:29:54.507Z,100462.05
2023-02-19T03:30:58.909Z,100460.2
2023-02-19T03:32:03.483Z,100461.22
2023-02-19T03:33:07.912Z,100460.55
2023-02-19T03:34:12.351Z,100463.08
2023-02-19T03:35:16.587Z,100459.8
2023-02-19T03:36:20.865Z,100459.13
2023-02-19T03:37:25.112Z,100456.12
2023-02-19T03:38:29.356Z,100447.64
2023-02-19T03:39:33.596Z,100446.81
2023-02-19T03:40:37.827Z,100442.53
2023-02-19T03:41:42.100Z,100447.9
2023-02-19T03:42:46.351Z,100453.77
2023-02-19T03:43:50.595Z,100443.39
2023-02-19T03:44:54.853Z,100444.61
2023-02-19T03:45:59.243Z,100447.23
2023-02-19T03:47:03.731Z,100444.81
2023-02-19T03:48:08.019Z,100456.19
2023-02-19T03:49:12.288Z,100455.03
2023-02-19T03:50:16.584Z,100453.69
2023-02-19T03:51:20.832Z,100455.17
2023-02-19T03:52:25.117Z,100456.22
2023-02-19T03:53:29.418Z,100451.34
2023-02-19T03:54:33.670Z,100450.34
2023-02-19T03:55:37.975Z,100450.01
2023-02-19T03:56:42.272Z,100449.89
2023-02-19T03:57:46.546Z,100446.22
2023-02-19T03:58:50.810Z,100444.21
2023-02-19T03:59:55.162Z,100445.95
2023-02-19T04:00:59.422Z,100445.09
2023-02-19T04:02:03.775Z,100445.51
2023-02-19T04:03:08.072Z,100440.26
2023-02-19T04:04:12.334Z,100442.16
2023-02-19T04:05:16.605Z,100442.67
2023-02-19T04:06:20.875Z,100445.17
2023-02-19T04:07:25.150Z,100442.83
2023-02-19T04:08:29.574Z,100454.06
2023-02-19T04:09:33.833Z,100451.87
2023-02-19T04:10:38.095Z,100453.91
2023-02-19T04:11:42.348Z,100449.19
2023-02-19T04:12:46.606Z,100450.3
2023-02-19T04:13:50.827Z,100450.63
2023-02-19T04:14:55.073Z,100452.53
2023-02-19T04:15:59.374Z,100454.98
2023-02-19T04:17:03.680Z,100458.33
2023-02-19T04:18:07.999Z,100456.73
2023-02-19T04:19:12.269Z,100456.11
2023-02-19T04:20:16.591Z,100463.41
2023-02-19T04:21:20.825Z,100464.22
2023-02-19T04:22:25.060Z,100467.23
2023-02-19T04:23:29.340Z,100466.81
2023-02-19T04:24:33.586Z,100471.44
2023-02-19T04:25:37.855Z,100478.09
2023-02-19T04:26:42.114Z,100479.5
2023-02-19T04:27:46.365Z,100476.41
2023-02-19T04:28:50.619Z,100476.45
2023-02-19T04:29:54.926Z,100486.39
2023-02-19T04:30:59.273Z,100482.66
2023-02-19T04:32:03.732Z,100485
2023-02-19T04:33:08.095Z,100484.77
2023-02-19T04:34:12.386Z,100485.78
2023-02-19T04:35:16.650Z,100487.27
2023-02-19T04:36:20.897Z,100492.14
2023-02-19T04:37:25.170Z,100485.52
2023-02-19T04:38:29.431Z,100482.66
2023-02-19T04:39:33.721Z,100483.58
2023-02-19T04:40:37.978Z,100480.16
2023-02-19T04:41:42.234Z,100475.8
2023-02-19T04:42:46.496Z,100478.48
2023-02-19T04:43:50.742Z,100473.72
2023-02-19T04:44:55.006Z,100472.05
2023-02-19T04:45:59.302Z,100468.02
2023-02-19T04:47:03.631Z,100477.2
2023-02-19T04:48:07.929Z,100478.55
2023-02-19T04:49:12.327Z,100477.31
2023-02-19T04:50:16.635Z,100482.17
2023-02-19T04:51:20.902Z,100483.33
2023-02-19T04:52:25.149Z,100484.52
2023-02-19T04:53:29.425Z,100491.7
2023-02-19T04:54:33.728Z,100489.54
2023-02-19T04:55:38.032Z,100484.51
2023-02-19T04:56:42.316Z,100491.13
2023-02-19T04:57:46.600Z,100483.17
2023-02-19T04:58:50.853Z,100483.83
2023-02-19T04:59:56.140Z,100489.13
2023-02-19T05:01:00.397Z,100486.19
2023-02-19T05:02:04.638Z,100486.33
2023-02-19T05:03:08.914Z,100489.79
2023-02-19T05:04:13.416Z,100493.61
2023-02-19T05:05:17.733Z,100486.44
2023-02-19T05:06:21.975Z,100488.13
2023-02-19T05:07:26.239Z,100489.94
2023-02-19T05:08:30.514Z,100485.16
2023-02-19T05:09:34.801Z,100487.78
2023-02-19T05:10:39.114Z,100479.77
2023-02-19T05:11:43.367Z,100476.66
2023-02-19T05:12:47.638Z,100483.48
2023-02-19T05:13:51.888Z,100470.16
2023-02-19T05:14:56.150Z,100475.16
2023-02-19T05:16:00.678Z,100473.77
2023-02-19T05:17:05.064Z,100467.2
2023-02-19T05:18:09.325Z,100473.01
2023-02-19T05:19:13.933Z,100470.87
2023-02-19T05:20:18.222Z,100471.2
2023-02-19T05:21:22.500Z,100470.19
2023-02-19T05:22:26.782Z,100473.69
2023-02-19T05:23:31.064Z,100468.42
2023-02-19T05:24:35.325Z,100469.65
2023-02-19T05:25:41.919Z,100472.92
2023-02-19T05:26:46.584Z,100465.87
2023-02-19T05:27:50.898Z,100468.39
2023-02-19T05:28:55.296Z,100474.09
2023-02-19T05:29:59.620Z,100470.3
2023-02-19T05:31:04.044Z,100471.3
2023-02-19T05:32:08.492Z,100466.2
2023-02-19T05:33:12.803Z,100470.64
2023-02-19T05:34:17.092Z,100472.42
2023-02-19T05:35:21.362Z,100473.84
2023-02-19T05:36:25.636Z,100469.3
2023-02-19T05:37:29.873Z,100473.84
2023-02-19T05:38:34.175Z,100476.27
2023-02-19T05:39:38.455Z,100467.89
2023-02-19T05:40:42.682Z,100479.7
2023-02-19T05:41:46.967Z,100476.14
2023-02-19T05:42:51.288Z,100479.83
2023-02-19T05:43:55.558Z,100472.8
2023-02-19T05:44:59.816Z,100478.16
2023-02-19T05:46:04.142Z,100473.39
2023-02-19T05:47:08.432Z,100477.84
2023-02-19T05:48:12.755Z,100473.89
2023-02-19T05:49:16.996Z,100475.56
2023-02-19T05:50:21.520Z,100476.43
2023-02-19T05:51:25.800Z,100475.84
2023-02-19T05:52:30.042Z,100477.78
2023-02-19T05:53:34.326Z,100475.84
2023-02-19T05:54:38.585Z,100474.43
2023-02-19T05:55:42.922Z,100465.8
2023-02-19T05:56:47.181Z,100464.11
2023-02-19T05:57:51.472Z,100475.52
2023-02-19T05:58:55.805Z,100479.31
2023-02-19T06:00:00.105Z,100471.5
2023-02-19T06:01:04.473Z,100475.7
2023-02-19T06:02:08.815Z,100473.62
2023-02-19T06:03:13.240Z,100472.42
2023-02-19T06:04:17.518Z,100480.7
2023-02-19T06:05:21.827Z,100484.39
2023-02-19T06:06:26.142Z,100483.64
2023-02-19T06:07:30.402Z,100487.41
2023-02-19T06:08:34.684Z,100484.87
2023-02-19T06:09:38.965Z,100476.61
2023-02-19T06:10:43.248Z,100482.64
2023-02-19T06:11:47.532Z,100481.78
2023-02-19T06:12:51.813Z,100488
2023-02-19T06:13:56.090Z,100490.68
2023-02-19T06:15:00.309Z,100491.17
2023-02-19T06:16:04.681Z,100489.48
2023-02-19T06:17:08.996Z,100497.53
2023-02-19T06:18:13.359Z,100499.98
2023-02-19T06:19:17.642Z,100497.45
2023-02-19T06:20:21.897Z,100496.3
2023-02-19T06:21:28.289Z,100499.88
2023-02-19T06:22:32.557Z,100502.75
2023-02-19T06:23:36.818Z,100497.45
2023-02-19T06:24:41.111Z,100497.53
2023-02-19T06:25:45.353Z,100503.16
2023-02-19T06:26:49.622Z,100503.41
2023-02-19T06:27:53.977Z,100500.47
2023-02-19T06:28:58.233Z,100502.22
2023-02-19T06:30:02.615Z,100504.01
2023-02-19T06:31:07.017Z,100508.52
2023-02-19T06:32:11.900Z,100507.92
2023-02-19T06:33:16.456Z,100516.81
2023-02-19T06:34:20.748Z,100513.39
2023-02-19T06:35:26.070Z,100514.63
2023-02-19T06:36:30.336Z,100514.95
2023-02-19T06:37:34.668Z,100524.52
2023-02-19T06:38:38.996Z,100525.45
2023-02-19T06:39:43.261Z,100528.7
2023-02-19T06:40:47.488Z,100521.43
2023-02-19T06:41:51.802Z,100518.48
2023-02-19T06:42:56.173Z,100521.17
2023-02-19T06:44:00.443Z,100525.12
2023-02-19T06:45:04.699Z,100521.77
2023-02-19T06:46:08.986Z,100531.3
2023-02-19T06:47:13.254Z,100526.12
2023-02-19T06:48:17.521Z,100531.06
2023-02-19T06:49:21.769Z,100528.04
2023-02-19T06:50:26.064Z,100530.05
2023-02-19T06:51:30.333Z,100533.88
2023-02-19T06:52:34.598Z,100535.14
2023-02-19T06:53:38.918Z,100532.12
2023-02-19T06:54:43.173Z,100538.89
2023-02-19T06:55:47.494Z,100541.64
2023-02-19T06:56:51.859Z,100544.11
2023-02-19T06:57:56.140Z,100548.61
2023-02-19T06:59:00.398Z,100545
2023-02-19T07:00:04.658Z,100541.58
2023-02-19T07:01:09.598Z,100538.07
2023-02-19T07:02:14.497Z,100542.98
2023-02-19T07:03:18.755Z,100541.23
2023-02-19T07:04:26.313Z,100541.58
2023-02-19T07:05:30.769Z,100548.69
2023-02-19T07:06:35.068Z,100550.47
2023-02-19T07:07:39.363Z,100542.58
2023-02-19T07:08:43.616Z,100537.73
2023-02-19T07:09:47.855Z,100546.26
2023-02-19T07:10:52.102Z,100551.55
2023-02-19T07:11:56.419Z,100556.49
2023-02-19T07:13:00.728Z,100554.41
2023-02-19T07:14:05.008Z,100552.95
2023-02-19T07:15:09.270Z,100559.32
2023-02-19T07:16:13.604Z,100561.52
2023-02-19T07:17:17.903Z,100560.77
2023-02-19T07:18:22.163Z,100562.92
2023-02-19T07:19:26.431Z,100563.93
2023-02-19T07:20:30.710Z,100558.91
2023-02-19T07:21:34.995Z,100568.13
2023-02-19T07:22:39.255Z,100571.56
2023-02-19T07:23:43.502Z,100562.66
2023-02-19T07:24:48.993Z,100572.22
2023-02-19T07:25:53.241Z,100568.54
2023-02-19T07:26:57.531Z,100568.61
2023-02-19T07:28:01.821Z,100573.05
2023-02-19T07:29:06.224Z,100569.8
2023-02-19T07:30:10.574Z,100574.58
2023-02-19T07:31:18.247Z,100580.08
2023-02-19T07:32:22.774Z,100575.91
2023-02-19T07:33:27.031Z,100577.66
2023-02-19T07:34:31.281Z,100575.31
2023-02-19T07:35:35.559Z,100577.51
2023-02-19T07:36:39.867Z,100576.92
2023-02-19T07:37:44.153Z,100575.51
2023-02-19T07:38:48.388Z,100579.69
2023-02-19T07:39:52.640Z,100575.67
2023-02-19T07:40:56.893Z,100574.16
2023-02-19T07:42:01.148Z,100576.27
2023-02-19T07:43:05.450Z,100577.17
2023-02-19T07:44:09.702Z,100572.41
2023-02-19T07:45:13.968Z,100574.67
2023-02-19T07:46:18.330Z,100573.67
2023-02-19T07:47:22.634Z,100578.7
2023-02-19T07:48:26.951Z,100576.97
2023-02-19T07:49:31.194Z,100578.62
2023-02-19T07:50:35.448Z,100582.23
2023-02-19T07:51:39.698Z,100583.85
2023-02-19T07:52:43.971Z,100588.96
2023-02-19T07:53:48.265Z,100583.94
2023-02-19T07:54:52.569Z,100589.63
2023-02-19T07:55:56.837Z,100586.88
2023-02-19T07:57:01.119Z,100589.04
2023-02-19T07:58:07.251Z,100584.69
2023-02-19T07:59:11.485Z,100587.03
2023-02-19T08:00:16.831Z,100584.69
2023-02-19T08:01:21.292Z,100586.78
2023-02-19T08:02:25.746Z,100595.27
2023-02-19T08:03:30.158Z,100589.13
2023-02-19T08:04:34.518Z,100596.08
2023-02-19T08:05:38.798Z,100592.47
2023-02-19T08:06:43.095Z,100593.81
2023-02-19T08:07:47.382Z,100597.83
2023-02-19T08:08:51.670Z,100607
2023-02-19T08:09:55.917Z,100607.56
2023-02-19T08:11:00.184Z,100605.88
2023-02-19T08:12:04.433Z,100603.13
2023-02-19T08:13:08.687Z,100602.54
2023-02-19T08:14:12.923Z,100610.35
2023-02-19T08:15:17.192Z,100598.62
2023-02-19T08:16:43.439Z,100605.99
2023-02-19T08:17:47.732Z,100607
2023-02-19T08:18:52.099Z,100613.02
2023-02-19T08:19:56.373Z,100614.52
2023-02-19T08:21:00.648Z,100614.44
2023-02-19T08:22:04.985Z,100618.79
2023-02-19T08:23:09.275Z,100612.75
2023-02-19T08:24:13.574Z,100620.53
2023-02-19T08:25:17.848Z,100624.39
2023-02-19T08:26:22.124Z,100625.22
2023-02-19T08:27:26.433Z,100624.55
2023-02-19T08:28:30.720Z,100626.14
2023-02-19T08:29:34.957Z,100630.67
2023-02-19T08:30:39.476Z,100623.05
2023-02-19T08:31:44.170Z,100632.84
2023-02-19T08:32:48.713Z,100634.05
2023-02-19T08:33:53.184Z,100630.7
2023-02-19T08:34:57.488Z,100632.74
2023-02-19T08:36:01.736Z,100635.02
2023-02-19T08:37:05.981Z,100632.62
2023-02-19T08:38:10.235Z,100636.55
2023-02-19T08:39:14.534Z,100637.95
2023-02-19T08:40:18.802Z,100642.2
2023-02-19T08:41:23.057Z,100642.71
2023-02-19T08:42:29.733Z,100645.86
2023-02-19T08:43:33.978Z,100645.77
2023-02-19T08:44:38.298Z,100638.98
2023-02-19T08:45:42.641Z,100646.34
2023-02-19T08:46:46.924Z,100644.94
2023-02-19T08:47:51.180Z,100643.78
2023-02-19T08:48:55.460Z,100655.2
2023-02-19T08:49:59.725Z,100645.49
2023-02-19T08:51:04.016Z,100651.69
2023-02-19T08:52:08.285Z,100653.96
2023-02-19T08:53:12.543Z,100657.25
2023-02-19T08:54:16.871Z,100662.36
2023-02-19T08:55:21.314Z,100662.09
2023-02-19T08:56:25.935Z,100667.11
2023-02-19T08:57:31.231Z,100670.45
2023-02-19T08:58:35.466Z,100664.84
2023-02-19T08:59:39.752Z,100665.39
2023-02-19T09:00:44.023Z,100671.63
2023-02-19T09:01:48.372Z,100668.03
2023-02-19T09:02:52.625Z,100671.82
2023-02-19T09:03:57.039Z,100670.79
2023-02-19T09:05:01.493Z,100672.66
2023-02-19T09:06:05.761Z,100672.28
2023-02-19T09:07:10.019Z,100671.97
2023-02-19T09:08:14.285Z,100678.58
2023-02-19T09:09:18.528Z,100679.45
2023-02-19T09:10:22.790Z,100677.55
2023-02-19T09:11:27.140Z,100687.28
2023-02-19T09:12:31.416Z,100683.34
2023-02-19T09:13:35.661Z,100681.01
2023-02-19T09:14:39.917Z,100679.42
2023-02-19T09:15:44.256Z,100680.34
2023-02-19T09:16:48.533Z,100680.83
2023-02-19T09:17:53.018Z,100670.3
2023-02-19T09:18:57.271Z,100686.39
2023-02-19T09:20:01.587Z,100686.66
2023-02-19T09:21:05.859Z,100684.06
2023-02-19T09:22:10.122Z,100683.12
2023-02-19T09:23:14.387Z,100694.13
2023-02-19T09:24:18.683Z,100683.32
2023-02-19T09:25:23.060Z,100691.03
2023-02-19T09:26:27.441Z,100691.78
2023-02-19T09:27:31.819Z,100692.7
2023-02-19T09:28:36.115Z,100696.81
2023-02-19T09:29:40.384Z,100693.81
2023-02-19T09:30:44.704Z,100697.31
2023-02-19T09:31:49.259Z,100692.81
2023-02-19T09:32:53.584Z,100691.36
2023-02-19T09:33:57.849Z,100692.62
2023-02-19T09:35:02.080Z,100699.41
2023-02-19T09:36:06.341Z,100702.09
2023-02-19T09:37:10.644Z,100705.97
2023-02-19T09:38:14.911Z,100713.49
2023-02-19T09:39:19.198Z,100715.42
2023-02-19T09:40:23.455Z,100714.08
2023-02-19T09:41:27.766Z,100720.64
2023-02-19T09:42:32.075Z,100721.98
2023-02-19T09:43:36.368Z,100714.84
2023-02-19T09:44:40.662Z,100726.42
2023-02-19T09:45:44.907Z,100720.42
2023-02-19T09:46:49.162Z,100724.45
2023-02-19T09:47:53.402Z,100723.44
2023-02-19T09:48:57.708Z,100728.73
2023-02-19T09:50:01.976Z,100731.08
2023-02-19T09:51:06.227Z,100735.85
2023-02-19T09:52:10.502Z,100737.27
2023-02-19T09:53:14.777Z,100743.04
2023-02-19T09:54:19.019Z,100742.63
2023-02-19T09:55:23.256Z,100742.29
2023-02-19T09:56:27.708Z,100747.99
2023-02-19T09:57:32.159Z,100755.63
2023-02-19T09:58:36.478Z,100745.38
2023-02-19T09:59:40.746Z,100750.67
2023-02-19T10:00:45.005Z,100752.09
2023-02-19T10:01:49.362Z,100757.8
2023-02-19T10:02:53.739Z,100762.81
2023-02-19T10:03:58.001Z,100756.97
2023-02-19T10:05:02.594Z,100757.45
2023-02-19T10:06:08.795Z,100761.41
2023-02-19T10:07:14.831Z,100762.74
2023-02-19T10:08:19.127Z,100762.81
2023-02-19T10:09:23.404Z,100760.92
2023-02-19T10:10:27.648Z,100769.03
2023-02-19T10:11:31.918Z,100761.26
2023-02-19T10:12:36.163Z,100761.48
2023-02-19T10:13:40.469Z,100769.18
2023-02-19T10:14:44.765Z,100768.38
2023-02-19T10:15:49.149Z,100769.13
2023-02-19T10:16:53.495Z,100769.13
2023-02-19T10:17:57.757Z,100775.49
2023-02-19T10:19:02.007Z,100781.61
2023-02-19T10:20:06.368Z,100780.45
2023-02-19T10:21:11.305Z,100779.1
2023-02-19T10:22:16.117Z,100777.24
2023-02-19T10:23:20.546Z,100784.47
2023-02-19T10:24:24.839Z,100788.56
2023-02-19T10:25:29.094Z,100788.98
2023-02-19T10:26:33.344Z,100791.59
2023-02-19T10:27:37.682Z,100789.76
2023-02-19T10:28:41.936Z,100793.34
2023-02-19T10:29:46.194Z,100798.7
2023-02-19T10:30:50.535Z,100807.86
2023-02-19T10:31:55.110Z,100806.59
2023-02-19T10:32:59.530Z,100807
2023-02-19T10:34:03.814Z,100803.91
2023-02-19T10:35:08.066Z,100802.7
2023-02-19T10:36:12.332Z,100800.47
2023-02-19T10:37:16.575Z,100809.41
2023-02-19T10:38:20.837Z,100806.83
2023-02-19T10:39:25.084Z,100809.04
2023-02-19T10:40:29.365Z,100811.72
2023-02-19T10:41:33.608Z,100806.13
2023-02-19T10:42:37.915Z,100806.44
2023-02-19T10:43:42.167Z,100813.61
2023-02-19T10:44:46.431Z,100816.95
2023-02-19T10:45:50.675Z,100808.76
2023-02-19T10:46:54.989Z,100811.17
2023-02-19T10:47:59.253Z,100810.83
2023-02-19T10:49:03.536Z,100812.01
2023-02-19T10:50:07.885Z,100813.56
2023-02-19T10:51:12.896Z,100813.39
2023-02-19T10:52:17.371Z,100803.81
2023-02-19T10:53:21.650Z,100812.44
2023-02-19T10:54:25.924Z,100806.73
2023-02-19T10:55:30.217Z,100806.84
2023-02-19T10:56:34.485Z,100818.91
2023-02-19T10:57:38.825Z,100806.91
2023-02-19T10:58:43.100Z,100811.08
2023-02-19T10:59:47.341Z,100802.55
2023-02-19T11:00:51.617Z,100805.03
2023-02-19T11:01:56.005Z,100809.98
2023-02-19T11:03:00.430Z,100809.3
2023-02-19T11:04:04.773Z,100819.54
2023-02-19T11:05:09.057Z,100806.13
2023-02-19T11:06:13.321Z,100803.77
2023-02-19T11:07:17.556Z,100813.16
2023-02-19T11:08:21.858Z,100807.27
2023-02-19T11:09:26.116Z,100813.56
2023-02-19T11:10:30.480Z,100813.98
2023-02-19T11:11:34.735Z,100820
2023-02-19T11:12:38.986Z,100811.61
2023-02-19T11:13:43.308Z,100817.72
2023-02-19T11:14:48.545Z,100820.41
2023-02-19T11:15:52.930Z,100825.77
2023-02-19T11:16:57.373Z,100816.91
2023-02-19T11:18:01.671Z,100823.53
2023-02-19T11:19:05.911Z,100818.72
2023-02-19T11:20:10.176Z,100818.17
2023-02-19T11:21:14.413Z,100821.98
2023-02-19T11:22:18.716Z,100822.6
2023-02-19T11:23:23.002Z,100825.21
2023-02-19T11:24:27.418Z,100823.43
2023-02-19T11:25:31.664Z,100820.27
2023-02-19T11:26:35.915Z,100824.8
2023-02-19T11:27:40.205Z,100829.77
2023-02-19T11:28:44.479Z,100831.77
2023-02-19T11:29:48.731Z,100832.5
2023-02-19T11:30:52.976Z,100836.62
2023-02-19T11:31:57.515Z,100837.27
2023-02-19T11:33:01.928Z,100841.37
2023-02-19T11:34:06.204Z,100836.59
2023-02-19T11:35:10.472Z,100837.25
2023-02-19T11:36:14.747Z,100840.92
2023-02-19T11:37:19.078Z,100849.38
2023-02-19T11:38:23.352Z,100848.21
2023-02-19T11:39:27.646Z,100851.89
2023-02-19T11:40:31.923Z,100847.94
2023-02-19T11:41:36.180Z,100851.03
2023-02-19T11:42:40.573Z,100848.25
2023-02-19T11:43:44.844Z,100847.59
2023-02-19T11:44:49.107Z,100842.27
2023-02-19T11:45:53.366Z,100852.65
2023-02-19T11:46:57.679Z,100849.97
2023-02-19T11:48:01.980Z,100846.27
2023-02-19T11:49:06.234Z,100854.98
2023-02-19T11:50:10.579Z,100858.66
2023-02-19T11:51:14.857Z,100852.48
2023-02-19T11:52:19.143Z,100860.17
2023-02-19T11:53:23.460Z,100861.24
2023-02-19T11:54:27.726Z,100861.66
2023-02-19T11:55:32.015Z,100863.65
2023-02-19T11:56:36.281Z,100868.77
2023-02-19T11:57:40.543Z,100865.16
2023-02-19T11:58:44.913Z,100859.73
2023-02-19T11:59:49.156Z,100860.94
2023-02-19T12:00:53.406Z,100866.73
2023-02-19T12:01:57.750Z,100868.97
2023-02-19T12:03:02.176Z,100869.62
2023-02-19T12:04:06.484Z,100871
2023-02-19T12:05:10.896Z,100869.11
2023-02-19T12:06:15.242Z,100864.27
2023-02-19T12:07:20.825Z,100868.52
2023-02-19T12:08:26.637Z,100864.84
2023-02-19T12:09:30.919Z,100866.95
2023-02-19T12:10:35.192Z,100866.16
2023-02-19T12:11:39.453Z,100873.36
2023-02-19T12:12:43.712Z,100871.78
2023-02-19T12:13:47.971Z,100869.76
2023-02-19T12:14:52.292Z,100859.97
2023-02-19T12:15:56.549Z,100877.45
2023-02-19T12:17:00.924Z,100886.14